createdAt,value
2018-12-14T00:01:05.094Z,18.37
2018-12-14T00:03:32.520Z,17.47
2018-12-14T00:05:59.947Z,17.70
2018-12-14T00:08:27.480Z,17.43
2018-12-14T00:10:54.907Z,17.13
2018-12-14T00:13:22.359Z,15.30
2018-12-14T00:15:50.242Z,16.87
2018-12-14T00:18:17.720Z,17.57
2018-12-14T00:20:45.193Z,18.27
2018-12-14T00:23:12.681Z,17.70
2018-12-14T00:25:40.919Z,18.92
2018-12-14T00:28:08.360Z,18.90
2018-12-14T00:30:36.153Z,18.40
2018-12-14T00:33:03.578Z,18.77
2018-12-14T00:35:31.259Z,18.23
2018-12-14T00:37:58.691Z,17.17
2018-12-14T00:40:26.175Z,17.30
2018-12-14T00:42:53.693Z,17.97
2018-12-14T00:45:21.123Z,17.43
2018-12-14T00:47:48.648Z,18.47
2018-12-14T00:50:16.093Z,17.60
2018-12-14T00:52:43.578Z,18.47
2018-12-14T00:55:11.022Z,17.67
2018-12-14T00:57:38.443Z,17.47
2018-12-14T01:00:05.881Z,17.45
2018-12-14T01:02:33.315Z,17.80
2018-12-14T01:05:00.760Z,18.00
2018-12-14T01:07:28.187Z,18.33
2018-12-14T01:09:55.616Z,17.37
2018-12-14T01:12:23.035Z,18.03
2018-12-14T01:14:50.463Z,20.23
2018-12-14T01:17:17.931Z,18.07
2018-12-14T01:19:45.368Z,17.82
2018-12-14T01:22:12.786Z,17.97
2018-12-14T01:24:40.220Z,18.65
2018-12-14T01:27:07.656Z,19.20
2018-12-14T01:29:35.122Z,18.42
2018-12-14T01:32:02.567Z,18.73
2018-12-14T01:34:30.084Z,18.25
2018-12-14T01:36:57.504Z,18.33
2018-12-14T01:39:24.933Z,18.35
2018-12-14T01:41:52.351Z,17.60
2018-12-14T01:44:19.795Z,17.70
2018-12-14T01:46:47.225Z,18.23
2018-12-14T01:49:14.675Z,17.33
2018-12-14T01:51:42.099Z,18.60
2018-12-14T01:54:09.527Z,17.95
2018-12-14T01:56:36.955Z,18.23
2018-12-14T01:59:04.389Z,19.82
2018-12-14T02:01:32.179Z,18.90
2018-12-14T02:03:59.603Z,16.60
2018-12-14T02:06:27.085Z,18.77
2018-12-14T02:08:54.515Z,18.43
2018-12-14T02:11:21.999Z,17.57
2018-12-14T02:13:49.432Z,18.60
2018-12-14T02:16:16.856Z,18.62
2018-12-14T02:18:44.283Z,17.37
2018-12-14T02:21:11.717Z,18.30
2018-12-14T02:23:39.148Z,15.93
2018-12-14T02:26:06.651Z,18.23
2018-12-14T02:28:34.087Z,16.37
2018-12-14T02:31:01.519Z,18.30
2018-12-14T02:33:28.944Z,17.17
2018-12-14T02:35:56.371Z,18.13
2018-12-14T02:38:23.792Z,17.33
2018-12-14T02:40:51.291Z,17.15
2018-12-14T02:43:20.163Z,16.80
2018-12-14T02:45:47.606Z,16.43
2018-12-14T02:48:15.028Z,16.02
2018-12-14T02:50:42.539Z,18.43
2018-12-14T02:53:09.959Z,18.17
2018-12-14T02:55:37.393Z,17.00
2018-12-14T02:58:04.820Z,17.17
2018-12-14T03:00:32.253Z,16.10
2018-12-14T03:03:00.302Z,17.20
2018-12-14T03:05:27.745Z,16.12
2018-12-14T03:07:55.172Z,17.63
2018-12-14T03:10:22.617Z,18.48
2018-12-14T03:12:50.055Z,17.60
2018-12-14T03:15:17.480Z,16.80
2018-12-14T03:17:44.906Z,17.60
2018-12-14T03:20:12.327Z,17.52
2018-12-14T03:22:39.880Z,16.23
2018-12-14T03:25:07.326Z,16.07
2018-12-14T03:27:34.821Z,15.83
2018-12-14T03:30:02.256Z,15.83
2018-12-14T03:32:29.684Z,16.53
2018-12-14T03:34:57.194Z,16.62
2018-12-14T03:37:24.656Z,16.43
2018-12-14T03:39:52.152Z,15.32
2018-12-14T03:42:19.590Z,17.30
2018-12-14T03:44:47.030Z,15.97
2018-12-14T03:47:14.453Z,17.77
2018-12-14T03:49:41.875Z,17.57
2018-12-14T03:52:09.402Z,15.97
2018-12-14T03:54:36.967Z,18.40
2018-12-14T03:57:04.388Z,17.63
2018-12-14T03:59:31.836Z,18.33
2018-12-14T04:01:59.277Z,18.13
2018-12-14T04:04:26.690Z,17.73
2018-12-14T04:06:54.124Z,16.67
2018-12-14T04:09:21.613Z,17.82
2018-12-14T04:11:49.048Z,18.43
2018-12-14T04:14:16.517Z,18.52
2018-12-14T04:16:43.950Z,18.70
2018-12-14T04:19:11.395Z,17.15
2018-12-14T04:21:38.914Z,18.77
2018-12-14T04:24:06.946Z,18.65
2018-12-14T04:26:34.383Z,18.23
2018-12-14T04:29:01.883Z,18.45
2018-12-14T04:31:29.318Z,18.70
2018-12-14T04:33:56.741Z,18.12
2018-12-14T04:36:24.255Z,18.63
2018-12-14T04:38:51.680Z,18.17
2018-12-14T04:41:19.160Z,16.17
2018-12-14T04:43:46.592Z,19.27
2018-12-14T04:46:14.078Z,17.47
2018-12-14T04:48:41.512Z,18.15
2018-12-14T04:51:08.955Z,18.30
2018-12-14T04:53:36.375Z,18.65
2018-12-14T04:56:03.802Z,17.80
2018-12-14T04:58:31.241Z,18.30
2018-12-14T05:00:58.730Z,18.73
2018-12-14T05:03:26.184Z,18.92
2018-12-14T05:05:53.641Z,18.40
2018-12-14T05:08:21.087Z,17.95
2018-12-14T05:10:48.518Z,19.20
2018-12-14T05:13:15.939Z,18.00
2018-12-14T05:15:43.379Z,19.13
2018-12-14T05:18:10.827Z,17.80
2018-12-14T05:20:38.264Z,18.23
2018-12-14T05:23:05.684Z,16.95
2018-12-14T05:25:33.205Z,18.13
2018-12-14T05:28:00.641Z,17.80
2018-12-14T05:30:28.116Z,19.97
2018-12-14T05:32:55.553Z,18.10
2018-12-14T05:35:23.021Z,20.40
2018-12-14T05:37:50.511Z,19.15
2018-12-14T05:40:17.948Z,19.53
2018-12-14T05:42:45.403Z,19.13
2018-12-14T05:45:12.857Z,18.90
2018-12-14T05:47:40.291Z,19.37
2018-12-14T05:50:07.708Z,18.67
2018-12-14T05:52:35.145Z,19.00
2018-12-14T05:55:02.585Z,19.77
2018-12-14T05:57:30.040Z,18.77
2018-12-14T05:59:57.462Z,19.13
2018-12-14T06:02:24.942Z,20.77
2018-12-14T06:04:52.360Z,20.80
2018-12-14T06:07:19.795Z,19.02
2018-12-14T06:09:47.214Z,20.27
2018-12-14T06:12:14.913Z,18.87
2018-12-14T06:14:42.460Z,19.47
2018-12-14T06:17:09.903Z,18.80
2018-12-14T06:19:37.888Z,20.23
2018-12-14T06:22:05.324Z,20.25
2018-12-14T06:24:33.266Z,19.33
2018-12-14T06:27:00.695Z,19.43
2018-12-14T06:29:28.123Z,19.60
2018-12-14T06:31:55.575Z,19.50
2018-12-14T06:34:23.003Z,21.90
2018-12-14T06:36:51.083Z,20.43
2018-12-14T06:39:18.754Z,20.00
2018-12-14T06:41:46.508Z,20.00
2018-12-14T06:44:14.314Z,21.55
2018-12-14T06:46:41.739Z,19.60
2018-12-14T06:49:09.166Z,20.27
2018-12-14T06:51:37.556Z,19.73
2018-12-14T06:54:05.212Z,20.50
2018-12-14T06:56:32.628Z,21.20
2018-12-14T06:59:00.051Z,20.07
2018-12-14T07:01:27.484Z,18.82
2018-12-14T07:03:54.907Z,18.30
2018-12-14T07:06:22.374Z,19.45
2018-12-14T07:08:49.808Z,18.90
2018-12-14T07:11:17.242Z,20.30
2018-12-14T07:13:44.663Z,17.17
2018-12-14T07:16:12.082Z,18.90
2018-12-14T07:18:39.507Z,19.07
2018-12-14T07:21:06.947Z,18.98
2018-12-14T07:23:34.414Z,19.60
2018-12-14T07:26:01.851Z,19.05
2018-12-14T07:28:29.287Z,18.83
2018-12-14T07:30:56.711Z,17.87
2018-12-14T07:33:24.140Z,20.17
2018-12-14T07:35:51.567Z,20.02
2018-12-14T07:38:19.007Z,18.70
2018-12-14T07:40:46.445Z,18.87
2018-12-14T07:43:13.867Z,18.40
2018-12-14T07:45:41.295Z,17.57
2018-12-14T07:48:08.802Z,17.90
2018-12-14T07:50:36.225Z,17.75
2018-12-14T07:53:09.120Z,17.67
2018-12-14T07:55:33.130Z,17.30
2018-12-14T07:58:00.566Z,15.32
2018-12-14T08:00:27.987Z,16.33
2018-12-14T08:02:55.494Z,14.30
2018-12-14T08:05:23.082Z,14.93
2018-12-14T08:07:50.526Z,15.90
2018-12-14T08:10:18.014Z,14.73
2018-12-14T08:12:45.487Z,17.15
2018-12-14T08:15:13.151Z,15.57
2018-12-14T08:17:40.599Z,14.50
2018-12-14T08:20:08.040Z,14.47
2018-12-14T08:22:35.466Z,14.87
2018-12-14T08:25:02.885Z,16.03
2018-12-14T08:27:30.386Z,17.83
2018-12-14T08:29:57.803Z,17.52
2018-12-14T08:32:25.244Z,17.67
2018-12-14T08:34:52.679Z,16.75
2018-12-14T08:37:20.118Z,16.77
2018-12-14T08:39:47.554Z,15.83
2018-12-14T08:42:15.112Z,16.87
2018-12-14T08:44:42.545Z,17.00
2018-12-14T08:47:10.040Z,16.47
2018-12-14T08:49:37.479Z,16.40
2018-12-14T08:52:04.972Z,17.43
2018-12-14T08:54:32.412Z,16.23
2018-12-14T08:56:59.849Z,17.73
2018-12-14T08:59:27.276Z,16.33
2018-12-14T09:01:54.717Z,16.87
2018-12-14T09:04:22.145Z,16.33
2018-12-14T09:06:49.603Z,16.45
2018-12-14T09:09:17.023Z,17.13
2018-12-14T09:11:44.451Z,17.65
2018-12-14T09:14:11.895Z,17.10
2018-12-14T09:16:39.333Z,15.73
2018-12-14T09:19:07.798Z,15.20
2018-12-14T09:21:35.263Z,15.68
2018-12-14T09:24:02.723Z,15.77
2018-12-14T09:26:30.156Z,15.75
2018-12-14T09:28:57.926Z,12.77
2018-12-14T09:31:25.500Z,14.63
2018-12-14T09:33:52.935Z,14.03
2018-12-14T09:36:20.372Z,13.73
2018-12-14T09:38:47.808Z,12.97
2018-12-14T09:41:16.332Z,12.97
2018-12-14T09:43:43.944Z,14.43
2018-12-14T09:46:11.375Z,14.20
2018-12-14T09:48:38.811Z,13.30
2018-12-14T09:51:12.161Z,13.67
2018-12-14T09:53:35.644Z,14.27
2018-12-14T09:56:03.161Z,14.90
2018-12-14T09:58:30.612Z,14.10
2018-12-14T10:00:58.047Z,13.95
2018-12-14T10:03:25.489Z,14.13
2018-12-14T10:05:52.911Z,15.30
2018-12-14T10:08:20.382Z,13.77
2018-12-14T10:10:48.051Z,13.30
2018-12-14T10:13:15.736Z,14.40
2018-12-14T10:15:43.171Z,14.03
2018-12-14T10:18:10.599Z,14.63
2018-12-14T10:20:38.036Z,14.20
2018-12-14T10:23:05.500Z,14.20
2018-12-14T10:25:32.918Z,13.37
2018-12-14T10:28:00.370Z,14.00
2018-12-14T10:30:28.491Z,13.83
2018-12-14T10:32:56.044Z,15.17
2018-12-14T10:35:23.479Z,14.67
2018-12-14T10:37:50.911Z,14.63
2018-12-14T10:40:18.415Z,14.47
2018-12-14T10:42:45.885Z,14.73
2018-12-14T10:45:13.327Z,14.23
2018-12-14T10:47:40.792Z,14.47
2018-12-14T10:50:08.227Z,14.63
2018-12-14T10:52:35.811Z,14.75
2018-12-14T10:55:03.247Z,14.73
2018-12-14T10:57:30.807Z,15.40
2018-12-14T10:59:58.247Z,14.33
2018-12-14T11:02:25.739Z,15.00
2018-12-14T11:04:53.172Z,13.65
2018-12-14T14:01:19.704Z,14.70
2018-12-14T14:03:47.273Z,15.57
2018-12-14T14:06:14.706Z,15.20
2018-12-14T14:08:42.147Z,15.07
2018-12-14T14:11:09.604Z,16.27
2018-12-14T14:13:37.046Z,16.00
2018-12-14T14:16:04.559Z,15.60
2018-12-14T14:18:31.993Z,13.50
2018-12-14T14:20:59.461Z,14.47
2018-12-14T14:23:26.892Z,16.17
2018-12-14T14:25:54.352Z,13.65
2018-12-14T14:28:22.107Z,13.50
2018-12-14T14:30:49.548Z,13.87
2018-12-14T14:33:16.988Z,13.53
2018-12-14T14:35:44.418Z,13.63
2018-12-14T14:38:11.844Z,12.07
2018-12-14T14:40:39.277Z,12.43
2018-12-14T14:43:06.716Z,12.70
2018-12-14T14:45:34.152Z,12.17
2018-12-14T14:48:01.686Z,12.73
2018-12-14T14:50:29.100Z,13.77
2018-12-14T14:52:56.533Z,13.65
2018-12-14T14:55:23.968Z,12.30
2018-12-14T14:57:51.766Z,11.75
2018-12-14T15:00:19.201Z,16.10
2018-12-14T15:02:46.640Z,16.70
2018-12-14T15:05:14.084Z,17.50
2018-12-14T15:07:41.561Z,17.63
2018-12-14T15:10:09.002Z,18.82
2018-12-14T15:12:36.471Z,19.67
2018-12-14T15:15:06.765Z,18.52
2018-12-14T15:17:33.313Z,20.70
2018-12-14T15:20:00.758Z,18.65
2018-12-14T15:22:28.176Z,19.03
2018-12-14T15:24:55.604Z,19.32
2018-12-14T15:27:23.040Z,21.17
2018-12-14T15:29:50.476Z,19.57
2018-12-14T15:32:18.456Z,19.10
2018-12-14T15:34:45.892Z,21.33
2018-12-14T15:37:13.322Z,20.45
2018-12-14T15:39:40.755Z,21.60
2018-12-14T15:42:08.209Z,21.55
2018-12-14T15:44:35.712Z,20.50
2018-12-14T15:47:03.193Z,21.00
2018-12-14T15:49:30.631Z,20.27
2018-12-14T15:51:58.082Z,21.30
2018-12-14T15:54:25.515Z,20.70
2018-12-14T15:56:52.940Z,22.00
2018-12-14T15:59:21.091Z,21.95
2018-12-14T16:01:48.801Z,22.83
2018-12-14T16:04:16.250Z,22.30
2018-12-14T16:06:43.692Z,21.37
2018-12-14T16:09:11.129Z,21.63
2018-12-14T16:11:38.572Z,20.93
2018-12-14T16:14:06.248Z,21.50
2018-12-14T16:16:33.689Z,23.27
2018-12-14T16:19:01.194Z,21.53
2018-12-14T16:21:28.649Z,21.57
2018-12-14T16:23:56.085Z,21.15
2018-12-14T16:26:23.516Z,20.53
2018-12-14T16:28:51.002Z,20.02
2018-12-14T16:31:18.473Z,19.87
2018-12-14T16:33:45.908Z,20.72
2018-12-14T16:36:13.463Z,21.27
2018-12-14T16:38:40.899Z,21.15
2018-12-14T16:41:08.325Z,21.33
2018-12-14T16:43:35.766Z,19.43
2018-12-14T16:46:03.208Z,20.23
2018-12-14T16:48:30.658Z,20.67
2018-12-14T16:50:58.092Z,20.68
2018-12-14T16:53:25.519Z,20.90
2018-12-14T16:55:52.961Z,19.00
2018-12-14T16:58:20.470Z,21.87
2018-12-14T17:00:47.927Z,20.83
2018-12-14T17:03:15.368Z,20.00
2018-12-14T17:05:42.809Z,20.53
2018-12-14T17:08:10.288Z,20.32
2018-12-14T17:10:37.724Z,20.77
2018-12-14T17:13:05.158Z,19.52
2018-12-14T17:15:33.387Z,20.33
2018-12-14T17:18:01.215Z,19.97
2018-12-14T17:20:28.665Z,21.00
2018-12-14T17:22:56.103Z,22.00
2018-12-14T17:25:23.525Z,21.95
2018-12-14T17:27:50.962Z,19.97
2018-12-14T17:30:18.393Z,21.33
2018-12-14T17:32:45.836Z,23.03
2018-12-14T17:35:13.272Z,21.35
2018-12-14T17:37:40.702Z,21.73
2018-12-14T17:40:08.144Z,21.65
2018-12-14T17:42:35.590Z,21.20
2018-12-14T17:45:03.033Z,21.42
2018-12-14T17:47:30.468Z,22.10
2018-12-14T17:49:57.908Z,23.20
2018-12-14T17:52:25.425Z,21.00
2018-12-14T17:54:52.874Z,20.50
2018-12-14T17:57:20.312Z,20.47
2018-12-14T17:59:47.745Z,21.30
2018-12-14T18:02:15.223Z,19.98
2018-12-14T18:04:42.707Z,21.67
2018-12-14T18:07:10.142Z,20.77
2018-12-14T18:09:37.568Z,20.07
2018-12-14T18:12:05.045Z,20.30
2018-12-14T18:14:32.485Z,20.00
2018-12-14T18:16:59.937Z,21.57
2018-12-14T18:19:27.380Z,21.10
2018-12-14T18:21:54.812Z,20.27
2018-12-14T18:24:22.242Z,16.65
2018-12-14T18:26:49.675Z,19.07
2018-12-14T18:29:17.113Z,19.37
2018-12-14T18:31:44.546Z,19.80
2018-12-14T18:34:11.997Z,21.40
2018-12-14T18:36:39.437Z,19.00
2018-12-14T18:39:06.872Z,18.55
2018-12-14T18:41:34.316Z,19.20
2018-12-14T18:44:01.914Z,18.50
2018-12-14T18:46:29.318Z,18.85
2018-12-14T18:48:56.749Z,17.90
2018-12-14T18:51:24.190Z,16.82
2018-12-14T18:53:56.236Z,17.73
2018-12-14T18:56:23.809Z,18.63
2018-12-14T18:58:51.318Z,17.25
2018-12-14T19:01:18.790Z,17.50
2018-12-14T19:03:46.226Z,17.93
2018-12-14T19:06:13.665Z,17.50
2018-12-14T19:08:41.100Z,16.17
2018-12-14T19:11:08.528Z,17.65
2018-12-14T19:13:35.969Z,17.50
2018-12-14T19:16:03.402Z,16.73
2018-12-14T19:18:30.843Z,17.30
2018-12-14T19:20:58.285Z,17.92
2018-12-14T19:23:25.737Z,15.53
2018-12-14T19:25:53.240Z,15.57
2018-12-14T19:28:20.687Z,15.87
2018-12-14T19:30:48.121Z,16.37
2018-12-14T19:33:15.565Z,17.15
2018-12-14T19:35:43.017Z,16.23
2018-12-14T19:38:10.526Z,16.37
2018-12-14T19:40:37.950Z,16.70
2018-12-14T19:43:05.414Z,16.63
2018-12-14T19:45:32.857Z,16.13
2018-12-14T19:48:00.288Z,16.97
2018-12-14T19:50:27.725Z,17.30
2018-12-14T19:52:55.162Z,16.43
2018-12-14T19:55:22.600Z,17.85
2018-12-14T19:57:50.033Z,14.53
2018-12-14T20:00:17.459Z,11.63
2018-12-14T20:02:44.905Z,16.17
2018-12-14T20:05:12.347Z,18.35
2018-12-14T20:07:39.781Z,17.83
2018-12-14T20:10:07.212Z,16.52
2018-12-14T20:12:34.652Z,17.37
2018-12-14T20:15:02.161Z,18.03
2018-12-14T20:17:29.617Z,17.13
2018-12-14T20:19:57.122Z,17.63
2018-12-14T20:24:58.657Z,18.80
2018-12-14T20:27:26.101Z,17.98
2018-12-14T20:29:53.557Z,18.40
2018-12-14T20:32:21.016Z,18.20
2018-12-14T20:34:48.449Z,17.93
2018-12-14T20:37:15.902Z,15.33
2018-12-14T20:39:43.334Z,16.30
2018-12-14T20:42:10.787Z,16.20
2018-12-14T20:44:38.224Z,16.60
2018-12-14T20:47:05.649Z,15.30
2018-12-14T20:49:33.101Z,16.70
2018-12-14T20:52:00.540Z,16.80
2018-12-14T20:54:28.060Z,16.50
2018-12-14T20:56:55.522Z,16.50
2018-12-14T20:59:22.952Z,16.50
2018-12-14T21:01:50.396Z,16.25
2018-12-14T21:04:17.850Z,15.67
2018-12-14T21:06:45.300Z,17.52
2018-12-14T21:09:12.756Z,17.07
2018-12-14T21:11:40.245Z,17.17
2018-12-14T21:14:07.693Z,17.83
2018-12-14T21:16:35.130Z,18.37
2018-12-14T21:19:02.584Z,16.23
2018-12-14T21:21:30.074Z,16.40
2018-12-14T21:23:57.549Z,15.48
2018-12-14T21:26:24.978Z,17.93
2018-12-14T21:28:52.444Z,15.93
2018-12-14T21:31:19.877Z,16.23
2018-12-14T21:33:47.313Z,14.70
2018-12-14T21:36:14.752Z,15.10
2018-12-14T21:38:42.192Z,14.63
2018-12-14T21:41:09.641Z,13.95
2018-12-14T21:43:37.082Z,14.37
2018-12-14T21:46:04.525Z,15.25
2018-12-14T21:48:31.982Z,14.17
2018-12-14T21:50:59.429Z,13.35
2018-12-14T21:53:26.873Z,14.30
2018-12-14T21:55:54.307Z,11.97
2018-12-14T21:58:21.748Z,10.27
2018-12-14T22:00:49.264Z,12.73
2018-12-14T22:03:16.706Z,13.37
2018-12-14T22:05:44.143Z,13.03
2018-12-14T22:08:11.581Z,12.47
2018-12-14T22:10:39.018Z,11.43
2018-12-14T22:13:06.449Z,11.55
2018-12-14T22:15:33.885Z,12.03
2018-12-14T22:18:01.345Z,13.13
2018-12-14T22:20:28.777Z,11.17
2018-12-14T22:22:56.221Z,12.82
2018-12-14T22:25:23.685Z,13.30
2018-12-14T22:27:52.189Z,11.28
2018-12-14T22:30:19.757Z,11.27
2018-12-14T22:32:47.209Z,13.83
2018-12-14T22:35:14.680Z,12.20
2018-12-14T22:37:42.117Z,13.40
2018-12-14T22:40:09.560Z,13.20
2018-12-14T22:42:36.994Z,13.83
2018-12-14T22:45:04.436Z,10.23
2018-12-14T22:47:31.881Z,11.83
2018-12-14T22:49:59.330Z,11.65
2018-12-14T22:52:26.769Z,12.53
2018-12-14T22:54:54.350Z,12.57
2018-12-14T22:57:21.790Z,12.75
2018-12-14T22:59:49.226Z,12.63
2018-12-14T23:02:16.652Z,12.60
2018-12-14T23:04:44.115Z,14.50
2018-12-14T23:07:11.557Z,13.72
2018-12-14T23:09:38.998Z,14.70
2018-12-14T23:12:06.436Z,14.25
2018-12-14T23:14:33.935Z,14.13
2018-12-14T23:17:01.397Z,16.02
2018-12-14T23:19:28.834Z,15.47
2018-12-14T23:21:56.264Z,16.23
2018-12-14T23:24:23.698Z,15.37
2018-12-14T23:26:51.184Z,16.17
2018-12-14T23:29:18.635Z,15.83
2018-12-14T23:31:46.065Z,16.17
2018-12-14T23:34:13.500Z,14.75
2018-12-14T23:36:40.942Z,15.03
2018-12-14T23:39:08.385Z,15.83
2018-12-14T23:41:35.825Z,15.47
2018-12-14T23:44:03.256Z,12.93
2018-12-14T23:46:30.689Z,15.57
2018-12-14T23:48:58.137Z,15.32
2018-12-14T23:51:25.572Z,15.77
2018-12-14T23:53:53.031Z,14.47
2018-12-14T23:56:20.464Z,15.80
2018-12-14T23:58:47.901Z,15.63
